Reform, Alabama
Current Conditions -  °F | °C
As of 4:53 PM on Wednesday 26 Nov 2014 (Local Time) from KTCL Reporting Station
Few Clouds Few Clouds  
Wind Chill: 54°   Ceiling: Unl
Heat Index: 54°   Visibility: 10mi
Dew Point: 29°   Wind: 6mph
Humidity: 38%   Direction: 170°S
Pressure: 30.06"   Gusts: NA
Location:  33.38°N, 88.02°W
Report Text: KTCL 262253Z 17005KT 10SM FEW110 12/M02 A3006 RMK AO2 SLP178 T01221017
Loading
Personal Weather Stations






























Interactive Weather Map New forecast layout! Learn more

10-Day Weather Forecast

Advertisements
Track Severe Weather on mobile